createdAt,value
2018-06-04T00:03:16.607Z,16.25
2018-06-04T00:09:23.838Z,16.09
2018-06-04T00:15:29.669Z,16.09
2018-06-04T00:21:35.444Z,15.92
2018-06-04T00:27:41.084Z,15.89
2018-06-04T00:33:47.211Z,15.94
2018-06-04T00:39:54.090Z,15.78
2018-06-04T00:45:59.722Z,15.85
2018-06-04T00:52:05.453Z,15.78
2018-06-04T00:58:11.271Z,15.84
2018-06-04T01:04:16.888Z,15.93
2018-06-04T01:10:24.266Z,15.81
2018-06-04T01:16:30.165Z,15.92
2018-06-04T01:22:36.006Z,15.62
2018-06-04T01:28:41.908Z,15.62
2018-06-04T01:34:47.642Z,15.45
2018-06-04T01:40:54.686Z,15.28
2018-06-04T01:47:00.365Z,15.39
2018-06-04T01:53:06.066Z,15.48
2018-06-04T01:59:11.685Z,15.26
2018-06-04T02:05:17.417Z,15.17
2018-06-04T02:11:25.608Z,14.98
2018-06-04T02:17:31.452Z,14.97
2018-06-04T02:23:37.157Z,14.97
2018-06-04T02:29:43.361Z,14.94
2018-06-04T02:35:49.343Z,15.05
2018-06-04T02:41:56.248Z,15.07
2018-06-04T02:48:01.903Z,15.09
2018-06-04T02:54:07.644Z,15.03
2018-06-04T03:00:13.414Z,15.17
2018-06-04T03:06:19.511Z,15.10
2018-06-04T03:12:25.523Z,15.27
2018-06-04T03:18:31.328Z,15.36
2018-06-04T03:24:36.987Z,15.18
2018-06-04T03:30:42.734Z,15.43
2018-06-04T03:36:48.554Z,15.42
2018-06-04T03:42:54.857Z,15.76
2018-06-04T03:49:00.831Z,15.67
2018-06-04T03:55:06.598Z,15.75
2018-06-04T04:01:12.635Z,15.76
2018-06-04T04:07:18.468Z,15.90
2018-06-04T04:13:25.218Z,15.95
2018-06-04T04:19:31.292Z,16.02
2018-06-04T04:25:36.897Z,15.94
2018-06-04T04:31:42.617Z,16.10
2018-06-04T04:37:48.434Z,16.09
2018-06-04T04:43:56.123Z,16.39
2018-06-04T04:50:02.061Z,16.36
2018-06-04T04:56:07.920Z,16.53
2018-06-04T05:02:13.574Z,16.71
2018-06-04T05:08:19.749Z,16.75
2018-06-04T05:14:26.214Z,16.95
2018-06-04T05:20:31.953Z,17.10
2018-06-04T05:26:37.670Z,17.21
2018-06-04T05:32:43.373Z,17.38
2018-06-04T05:38:49.079Z,17.63
2018-06-04T05:44:55.153Z,17.53
2018-06-04T05:51:00.898Z,18.10
2018-06-04T05:57:06.600Z,17.80
2018-06-04T06:03:12.629Z,17.96
2018-06-04T06:09:18.449Z,18.36
2018-06-04T06:15:24.822Z,18.46
2018-06-04T06:21:30.622Z,18.78
2018-06-04T06:27:36.256Z,19.15
2018-06-04T06:33:41.897Z,19.44
2018-06-04T06:39:47.574Z,19.90
2018-06-04T06:45:53.962Z,20.11
2018-06-04T06:51:59.907Z,20.19
2018-06-04T06:58:05.818Z,20.75
2018-06-04T07:04:11.466Z,20.82
2018-06-04T07:10:17.320Z,21.33
2018-06-04T07:16:23.750Z,21.63
2018-06-04T07:22:29.431Z,22.24
2018-06-04T07:28:35.109Z,22.02
2018-06-04T07:34:40.866Z,22.06
2018-06-04T07:40:46.681Z,22.39
2018-06-04T07:46:53.549Z,22.97
2018-06-04T07:52:59.264Z,23.45
2018-06-04T07:59:05.340Z,23.83
2018-06-04T08:05:11.141Z,24.46
2018-06-04T08:11:16.747Z,25.08
2018-06-04T08:17:22.629Z,25.01
2018-06-04T08:23:28.276Z,25.08
2018-06-04T08:29:33.928Z,25.70
2018-06-04T08:35:39.416Z,26.52
2018-06-04T08:41:44.920Z,26.68
2018-06-04T08:47:50.983Z,26.93
2018-06-04T08:53:57.342Z,26.97
2018-06-04T09:00:02.998Z,27.35
2018-06-04T09:06:08.720Z,27.53
2018-06-04T09:12:15.325Z,28.14
2018-06-04T09:18:21.162Z,28.51
2018-06-04T09:24:27.016Z,28.24
2018-06-04T09:30:32.782Z,28.79
2018-06-04T09:36:38.582Z,28.52
2018-06-04T09:42:44.295Z,29.20
2018-06-04T09:48:49.948Z,29.08
2018-06-04T09:54:55.701Z,29.72
2018-06-04T10:01:01.275Z,29.47
2018-06-04T10:07:07.285Z,29.66
2018-06-04T10:13:12.905Z,29.50
2018-06-04T10:19:18.536Z,28.73
2018-06-04T10:25:24.614Z,29.62
2018-06-04T10:31:30.250Z,30.26
2018-06-04T10:37:36.187Z,30.66
2018-06-04T10:43:41.871Z,31.09
2018-06-04T10:49:47.492Z,31.47
2018-06-04T10:55:53.870Z,31.61
2018-06-04T11:01:59.489Z,31.62
2018-06-04T11:08:05.151Z,31.81
2018-06-04T11:14:10.742Z,32.05
2018-06-04T11:20:16.403Z,32.24
2018-06-04T11:26:22.629Z,31.85
2018-06-04T11:32:28.837Z,31.14
2018-06-04T11:38:34.544Z,31.91
2018-06-04T11:44:40.373Z,32.71
2018-06-04T11:50:45.983Z,33.36
2018-06-04T11:56:51.668Z,33.19
2018-06-04T12:02:57.622Z,33.48
2018-06-04T12:09:03.364Z,34.24
2018-06-04T12:15:09.370Z,34.22
2018-06-04T12:21:15.054Z,34.92
2018-06-04T12:27:20.780Z,33.99
2018-06-04T12:33:27.027Z,33.28
2018-06-04T12:39:32.835Z,33.39
2018-06-04T12:45:38.542Z,33.90
2018-06-04T12:51:44.252Z,34.63
2018-06-04T12:57:50.130Z,35.27
2018-06-04T13:03:55.873Z,35.70
2018-06-04T13:10:01.595Z,36.10
2018-06-04T13:16:07.597Z,36.22
2018-06-04T13:22:14.228Z,36.13
2018-06-04T13:28:20.485Z,35.46
2018-06-04T13:34:26.735Z,34.85
2018-06-04T13:40:32.454Z,35.72
2018-06-04T13:46:38.289Z,36.27
2018-06-04T13:52:44.093Z,35.77
2018-06-04T13:58:49.920Z,35.97
2018-06-04T14:04:55.848Z,36.01
2018-06-04T14:11:01.487Z,36.23
2018-06-04T14:17:07.154Z,35.97
2018-06-04T14:23:12.812Z,35.76
2018-06-04T14:29:18.487Z,35.07
2018-06-04T14:35:24.332Z,35.38
2018-06-04T14:41:29.980Z,35.33
2018-06-04T14:47:35.590Z,34.61
2018-06-04T14:53:41.455Z,34.56
2018-06-04T14:59:47.076Z,34.58
2018-06-04T15:05:52.835Z,34.73
2018-06-04T15:11:58.585Z,34.35
2018-06-04T15:18:04.599Z,34.23
2018-06-04T15:24:10.217Z,34.87
2018-06-04T15:30:15.836Z,34.26
2018-06-04T15:36:21.839Z,33.52
2018-06-04T15:42:27.605Z,33.66
2018-06-04T15:48:33.252Z,33.19
2018-06-04T15:54:39.095Z,32.71
2018-06-04T16:00:44.825Z,32.25
2018-06-04T16:06:51.236Z,31.67
2018-06-04T16:12:57.252Z,32.02
2018-06-04T16:19:02.936Z,31.65
2018-06-04T16:25:08.769Z,30.86
2018-06-04T16:31:14.435Z,30.71
2018-06-04T16:37:20.822Z,30.74
2018-06-04T16:43:26.169Z,30.40
2018-06-04T16:49:31.763Z,32.18
2018-06-04T16:55:37.438Z,33.82
2018-06-04T17:01:43.171Z,34.12
2018-06-04T17:07:49.177Z,34.66
2018-06-04T17:13:55.104Z,34.90
2018-06-04T17:20:00.956Z,34.54
2018-06-04T17:26:06.985Z,34.49
2018-06-04T17:32:12.696Z,34.28
2018-06-04T17:38:18.587Z,33.89
2018-06-04T17:44:25.566Z,32.88
2018-06-04T17:50:31.258Z,32.62
2018-06-04T17:56:37.017Z,32.82
2018-06-04T18:02:42.689Z,32.83
2018-06-04T18:08:48.362Z,32.00
2018-06-04T18:14:54.848Z,31.14
2018-06-04T18:21:00.831Z,30.24
2018-06-04T18:27:07.175Z,29.66
2018-06-04T18:33:12.850Z,29.21
2018-06-04T18:39:18.555Z,27.70
2018-06-04T18:45:24.447Z,26.94
2018-06-04T18:51:30.080Z,25.49
2018-06-04T18:57:35.782Z,24.72
2018-06-04T19:03:41.488Z,24.01
2018-06-04T19:09:47.254Z,23.54
2018-06-04T19:15:53.817Z,23.06
2018-06-04T19:21:59.588Z,22.64
2018-06-04T19:28:05.585Z,21.95
2018-06-04T19:34:11.248Z,21.73
2018-06-04T19:40:16.959Z,21.29
2018-06-04T19:46:22.960Z,21.13
2018-06-04T19:52:28.684Z,20.85
2018-06-04T19:58:34.411Z,20.71
2018-06-04T20:04:40.040Z,20.58
2018-06-04T20:10:46.048Z,20.32
2018-06-04T20:16:53.254Z,20.35
2018-06-04T20:22:59.065Z,20.05
2018-06-04T20:29:04.831Z,19.46
2018-06-04T20:35:10.479Z,19.32
2018-06-04T20:41:16.103Z,19.15
2018-06-04T20:47:22.236Z,19.17
2018-06-04T20:53:28.144Z,19.08
2018-06-04T20:59:33.841Z,18.91
2018-06-04T21:05:39.691Z,18.81
2018-06-04T21:11:45.308Z,18.93
2018-06-04T21:17:51.015Z,18.63
2018-06-04T21:23:57.099Z,18.64
2018-06-04T21:30:02.790Z,18.62
2018-06-04T21:36:08.431Z,18.28
2018-06-04T21:42:14.655Z,18.44
2018-06-04T21:48:21.241Z,18.13
2018-06-04T21:54:27.367Z,17.96
2018-06-04T22:00:33.026Z,17.84
2018-06-04T22:06:39.152Z,17.60
2018-06-04T22:12:44.992Z,17.55
2018-06-04T22:18:50.977Z,17.49
2018-06-04T22:24:56.991Z,17.40
2018-06-04T22:31:02.756Z,17.15
2018-06-04T22:37:08.443Z,16.95
2018-06-04T22:43:14.108Z,16.96
2018-06-04T22:49:20.041Z,16.93
2018-06-04T22:55:26.883Z,16.56
2018-06-04T23:01:32.615Z,16.52
2018-06-04T23:07:38.448Z,16.49
2018-06-04T23:13:44.390Z,16.74
2018-06-04T23:19:50.940Z,16.82
2018-06-04T23:25:57.116Z,17.04
2018-06-04T23:32:02.948Z,17.19
2018-06-04T23:38:08.968Z,17.34
2018-06-04T23:44:14.779Z,17.51
2018-06-04T23:50:21.345Z,17.49
2018-06-04T23:56:27.491Z,17.66
